createdAt,value
2023-10-20T00:00:43.134Z,20.00
2023-10-20T00:03:10.595Z,24.48
2023-10-20T00:05:37.948Z,20.73
2023-10-20T00:08:05.209Z,24.75
2023-10-20T00:10:36.559Z,23.30
2023-10-20T00:13:06.857Z,25.80
2023-10-20T00:15:35.065Z,26.73
2023-10-20T00:18:02.868Z,26.98
2023-10-20T00:20:30.260Z,23.40
2023-10-20T00:22:57.521Z,26.10
2023-10-20T00:25:24.562Z,27.90
2023-10-20T00:27:51.416Z,24.05
2023-10-20T00:30:18.297Z,23.73
2023-10-20T00:32:46.611Z,24.63
2023-10-20T00:35:16.750Z,28.75
2023-10-20T00:37:43.733Z,28.17
2023-10-20T00:40:11.924Z,28.05
2023-10-20T01:22:01.090Z,27.30
2023-10-20T01:24:28.124Z,27.67
2023-10-20T01:26:54.815Z,27.73
2023-10-20T01:29:21.744Z,25.58
2023-10-20T01:31:48.580Z,23.83
2023-10-20T01:34:15.490Z,26.27
2023-10-20T01:36:42.656Z,27.00
2023-10-20T01:39:09.765Z,25.35
2023-10-20T01:41:37.078Z,28.35
2023-10-20T01:44:04.008Z,25.50
2023-10-20T01:46:30.795Z,26.40
2023-10-20T01:48:57.505Z,25.95
2023-10-20T01:51:24.195Z,26.27
2023-10-20T01:53:50.890Z,26.40
2023-10-20T01:56:17.575Z,22.50
2023-10-20T01:58:44.543Z,21.23
2023-10-20T02:01:11.518Z,25.17
2023-10-20T02:03:38.553Z,24.50
2023-10-20T02:06:06.050Z,26.00
2023-10-20T02:08:33.573Z,26.05
2023-10-20T02:11:01.222Z,24.02
2023-10-20T02:13:28.374Z,25.10
2023-10-20T02:15:55.146Z,23.83
2023-10-20T02:18:21.948Z,22.83
2023-10-20T02:20:59.290Z,25.45
2023-10-20T02:23:26.475Z,23.05
2023-10-20T02:26:06.992Z,24.30
2023-10-20T02:28:34.581Z,23.23
2023-10-20T02:31:02.372Z,23.52
2023-10-20T02:33:29.396Z,22.95
2023-10-20T02:35:56.732Z,20.35
2023-10-20T02:38:23.607Z,25.50
2023-10-20T02:40:54.679Z,24.63
2023-10-20T02:43:22.479Z,25.38
2023-10-20T02:45:53.794Z,22.15
2023-10-20T02:48:21.455Z,19.92
2023-10-20T02:50:48.388Z,20.70
2023-10-20T02:53:15.675Z,23.17
2023-10-20T02:55:43.137Z,22.02
2023-10-20T02:58:13.604Z,22.67
2023-10-20T03:00:45.169Z,23.38
2023-10-20T03:03:13.520Z,22.27
2023-10-20T03:05:44.920Z,21.75
2023-10-20T03:08:12.481Z,19.90
2023-10-20T03:10:39.653Z,22.45
2023-10-20T03:13:06.575Z,16.55
2023-10-20T03:15:33.825Z,24.00
2023-10-20T03:18:00.970Z,22.48
2023-10-20T03:20:31.541Z,22.20
2023-10-20T03:22:58.600Z,21.20
2023-10-20T03:25:25.500Z,20.83
2023-10-20T03:27:52.172Z,20.20
2023-10-20T03:30:19.345Z,17.50
2023-10-20T03:32:51.206Z,19.15
2023-10-20T03:37:44.777Z,20.20
2023-10-20T03:40:14.793Z,22.35
2023-10-20T03:42:43.449Z,19.75
2023-10-20T03:45:11.688Z,21.10
2023-10-20T03:47:42.074Z,20.05
2023-10-20T03:50:16.813Z,21.88
2023-10-20T03:52:46.427Z,20.45
2023-10-20T03:55:16.578Z,19.52
2023-10-20T03:57:44.602Z,20.70
2023-10-20T04:00:30.058Z,13.98
2023-10-20T04:02:57.705Z,21.80
2023-10-20T04:05:25.397Z,18.55
2023-10-20T04:07:52.147Z,20.60
2023-10-20T04:10:22.076Z,21.10
2023-10-20T04:12:49.478Z,22.73
2023-10-20T04:15:16.554Z,21.05
2023-10-20T04:17:52.835Z,19.73
2023-10-20T04:20:21.306Z,21.17
2023-10-20T04:22:52.242Z,20.55
2023-10-20T04:25:20.523Z,20.77
2023-10-20T04:28:13.720Z,17.38
2023-10-20T04:30:58.741Z,18.58
2023-10-20T04:33:44.297Z,21.35
2023-10-20T04:36:29.629Z,21.15
2023-10-20T04:39:15.161Z,20.58
2023-10-20T04:42:00.732Z,20.58
2023-10-20T04:44:50.351Z,19.33
2023-10-20T04:47:17.333Z,21.65
2023-10-20T04:49:50.288Z,21.48
2023-10-20T04:52:29.460Z,21.60
2023-10-20T04:55:11.084Z,19.02
2023-10-20T04:57:56.476Z,22.20
2023-10-20T05:00:23.137Z,22.10
2023-10-20T05:02:52.057Z,21.45
2023-10-20T05:05:35.576Z,21.77
2023-10-20T05:08:14.379Z,20.83
2023-10-20T05:10:43.149Z,24.15
2023-10-20T05:13:11.073Z,19.35
2023-10-20T05:15:41.684Z,18.50
2023-10-20T05:18:18.071Z,20.67
2023-10-20T05:20:47.355Z,17.83
2023-10-20T05:23:17.033Z,16.42
2023-10-20T05:25:48.661Z,17.90
2023-10-20T05:28:17.137Z,20.92
2023-10-20T05:30:47.060Z,21.17
2023-10-20T05:33:14.771Z,19.40
2023-10-20T05:35:42.266Z,18.00
2023-10-20T05:38:09.656Z,18.23
2023-10-20T05:40:37.366Z,18.90
2023-10-20T05:43:06.413Z,17.10
2023-10-20T05:45:40.735Z,19.00
2023-10-20T05:48:08.639Z,17.58
2023-10-20T05:50:36.696Z,18.02
2023-10-20T05:53:03.888Z,16.15
2023-10-20T05:55:30.781Z,14.45
2023-10-20T05:57:57.442Z,13.90
2023-10-20T06:00:24.321Z,14.30
2023-10-20T06:02:51.719Z,13.88
2023-10-20T06:05:19.909Z,13.95
2023-10-20T06:07:46.657Z,14.18
2023-10-20T06:10:14.825Z,11.52
2023-10-20T06:12:41.521Z,13.55
2023-10-20T06:15:09.039Z,11.45
2023-10-20T06:17:37.425Z,12.32
2023-10-20T06:20:07.704Z,11.27
2023-10-20T06:22:34.542Z,9.15
2023-10-20T06:25:01.198Z,10.32
2023-10-20T06:27:28.002Z,10.13
2023-10-20T06:30:07.071Z,10.35
2023-10-20T06:32:44.054Z,10.40
2023-10-20T06:35:13.434Z,9.85
2023-10-20T06:37:57.408Z,11.85
2023-10-20T06:40:24.254Z,9.02
2023-10-20T06:42:50.947Z,7.82
2023-10-20T06:45:17.708Z,8.95
2023-10-20T06:47:44.769Z,9.55
2023-10-20T06:50:12.035Z,7.93
2023-10-20T06:52:39.043Z,9.50
2023-10-20T06:55:29.144Z,9.88
2023-10-20T06:57:53.212Z,9.35
2023-10-20T07:00:22.583Z,9.35
2023-10-20T07:02:49.776Z,7.78
2023-10-20T07:05:18.418Z,9.45
2023-10-20T07:07:45.248Z,8.77
2023-10-20T07:10:11.965Z,10.73
2023-10-20T07:12:39.314Z,9.68
2023-10-20T07:15:06.693Z,10.52
2023-10-20T07:17:34.084Z,10.90
2023-10-20T07:20:01.196Z,10.43
2023-10-20T07:22:30.016Z,11.30
2023-10-20T07:24:58.546Z,10.10
2023-10-20T07:27:26.451Z,10.32
2023-10-20T07:29:53.260Z,10.30
2023-10-20T07:32:20.610Z,10.13
2023-10-20T07:34:48.226Z,8.80
2023-10-20T07:37:17.709Z,11.20
2023-10-20T07:39:45.105Z,9.35
2023-10-20T07:42:12.013Z,9.52
2023-10-20T07:44:39.200Z,10.13
2023-10-20T07:47:07.306Z,9.68
2023-10-20T07:49:34.139Z,10.90
2023-10-20T07:52:03.227Z,7.88
2023-10-20T07:54:31.169Z,9.88
2023-10-20T07:56:59.753Z,8.48
2023-10-20T07:59:26.803Z,10.18
2023-10-20T08:01:53.671Z,9.60
2023-10-20T08:04:20.774Z,8.55
2023-10-20T08:06:49.316Z,7.38
2023-10-20T08:09:16.256Z,8.32
2023-10-20T08:11:43.471Z,8.82
2023-10-20T08:14:10.778Z,7.28
2023-10-20T08:16:37.874Z,7.55
2023-10-20T08:19:04.738Z,9.50
2023-10-20T08:21:31.825Z,6.35
2023-10-20T08:24:01.302Z,6.18
2023-10-20T08:26:28.099Z,7.60
2023-10-20T08:28:54.843Z,5.97
2023-10-20T08:31:23.242Z,6.38
2023-10-20T08:33:52.558Z,6.97
2023-10-20T08:36:22.757Z,7.18
2023-10-20T08:38:51.242Z,5.68
2023-10-20T08:41:22.727Z,4.90
2023-10-20T08:43:50.814Z,4.85
2023-10-20T08:46:19.293Z,5.03
2023-10-20T08:48:47.812Z,4.50
2023-10-20T08:51:17.646Z,4.93
2023-10-20T08:53:45.924Z,4.70
2023-10-20T08:56:14.305Z,4.93
2023-10-20T08:58:41.744Z,4.97
2023-10-20T09:01:09.042Z,3.28
2023-10-20T09:03:43.563Z,3.45
2023-10-20T09:06:15.268Z,3.78
2023-10-20T09:08:44.655Z,3.67
2023-10-20T09:11:13.259Z,3.60
2023-10-20T09:13:42.134Z,3.60
2023-10-20T09:16:11.485Z,3.00
2023-10-20T09:18:45.929Z,3.00
2023-10-20T09:21:14.769Z,2.67
2023-10-20T09:23:53.184Z,2.45
2023-10-20T09:26:20.013Z,2.50
2023-10-20T09:28:49.354Z,2.80
2023-10-20T09:31:20.198Z,2.50
2023-10-20T09:33:47.009Z,2.63
2023-10-20T09:36:14.541Z,2.28
2023-10-20T09:38:45.684Z,1.73
2023-10-20T09:41:15.878Z,1.13
2023-10-20T09:43:56.276Z,2.25
2023-10-20T09:46:42.882Z,2.10
2023-10-20T09:49:19.807Z,2.22
2023-10-20T09:51:48.587Z,2.35
2023-10-20T09:54:17.963Z,1.50
2023-10-20T09:56:46.633Z,1.63
2023-10-20T09:59:21.501Z,1.55
2023-10-20T10:01:49.082Z,1.50
2023-10-20T10:04:15.775Z,1.83
2023-10-20T10:06:46.834Z,1.58
2023-10-20T10:09:16.325Z,1.50
2023-10-20T10:11:44.436Z,1.35
2023-10-20T10:14:20.728Z,1.00
2023-10-20T10:17:00.011Z,1.58
2023-10-20T10:19:28.089Z,1.20
2023-10-20T10:21:59.801Z,1.42
2023-10-20T10:24:26.894Z,1.33
2023-10-20T10:27:08.012Z,1.02
2023-10-20T10:30:01.278Z,1.70
2023-10-20T10:32:32.815Z,1.58
2023-10-20T10:35:00.849Z,0.98
2023-10-20T10:37:30.865Z,1.33
2023-10-20T10:40:12.475Z,1.30
2023-10-20T10:42:44.917Z,1.10
2023-10-20T10:48:09.171Z,1.27
2023-10-20T10:50:44.107Z,1.20
2023-10-20T10:53:11.909Z,1.02
2023-10-20T10:55:38.951Z,0.90
2023-10-20T10:58:10.865Z,1.00
2023-10-20T11:00:39.038Z,1.30
2023-10-20T11:03:07.500Z,1.02
2023-10-20T11:05:35.002Z,1.00
2023-10-20T11:08:13.783Z,0.98
2023-10-20T11:10:47.245Z,1.00
2023-10-20T11:13:16.930Z,0.90
2023-10-20T11:15:44.396Z,0.80
2023-10-20T11:18:14.538Z,1.10
2023-10-20T11:20:43.587Z,1.02
2023-10-20T11:23:13.493Z,1.00
2023-10-20T11:25:44.233Z,1.20
2023-10-20T11:28:11.160Z,1.00
2023-10-20T11:30:40.004Z,0.98
2023-10-20T11:33:07.586Z,0.82
2023-10-20T11:35:34.602Z,1.00
2023-10-20T11:38:02.221Z,1.10
2023-10-20T11:40:29.149Z,0.80
2023-10-20T11:42:56.981Z,0.93
2023-10-20T11:45:24.170Z,1.10
2023-10-20T11:47:51.557Z,0.63
2023-10-20T11:50:21.774Z,0.95
2023-10-20T11:52:48.751Z,0.88
2023-10-20T11:55:15.677Z,0.52
2023-10-20T11:57:42.793Z,0.85
2023-10-20T12:00:15.000Z,1.10
2023-10-20T12:02:42.541Z,0.98
2023-10-20T12:05:10.690Z,1.10
2023-10-20T12:07:38.549Z,1.20
2023-10-20T12:10:06.729Z,0.88
2023-10-20T12:12:34.874Z,1.00
2023-10-20T12:15:01.893Z,1.02
2023-10-20T12:17:29.712Z,0.90
2023-10-20T12:19:56.621Z,1.10
2023-10-20T12:22:24.164Z,0.90
2023-10-20T12:24:51.469Z,1.20
2023-10-20T12:27:18.714Z,1.10
2023-10-20T12:29:45.452Z,1.00
2023-10-20T12:32:13.871Z,0.80
2023-10-20T12:34:41.062Z,1.13
2023-10-20T12:37:07.783Z,1.00
2023-10-20T12:39:34.682Z,0.80
2023-10-20T12:42:04.450Z,1.05
2023-10-20T12:44:31.569Z,0.90
2023-10-20T12:46:58.433Z,1.00
2023-10-20T12:49:25.265Z,1.10
2023-10-20T12:51:52.193Z,1.15
2023-10-20T12:54:18.969Z,1.58
2023-10-20T12:56:45.743Z,1.10
2023-10-20T12:59:12.473Z,0.55
2023-10-20T13:01:39.276Z,0.80
2023-10-20T13:04:06.552Z,0.80
2023-10-20T13:06:42.563Z,0.90
2023-10-20T13:09:18.475Z,1.10
2023-10-20T13:11:45.211Z,0.93
2023-10-20T13:14:11.941Z,1.10
2023-10-20T13:16:40.342Z,0.80
2023-10-20T13:19:07.562Z,0.68
2023-10-20T13:21:34.320Z,1.23
2023-10-20T13:24:01.008Z,0.85
2023-10-20T13:26:27.829Z,1.52
2023-10-20T13:28:54.606Z,1.38
2023-10-20T13:31:24.037Z,1.30
2023-10-20T13:33:50.987Z,1.70
2023-10-20T13:36:19.552Z,1.58
2023-10-20T13:38:46.599Z,1.23
2023-10-20T13:41:13.346Z,1.50
2023-10-20T13:43:40.266Z,1.45
2023-10-20T13:46:06.964Z,1.00
2023-10-20T13:48:33.783Z,0.60
2023-10-20T13:51:00.877Z,0.80
2023-10-20T13:53:27.694Z,1.17
2023-10-20T13:55:54.493Z,1.10
2023-10-20T13:58:22.450Z,1.00
2023-10-20T14:00:50.808Z,0.98
2023-10-20T14:03:17.652Z,0.90
2023-10-20T14:05:53.872Z,0.85
2023-10-20T14:08:20.758Z,0.75
2023-10-20T14:10:49.539Z,0.75
2023-10-20T14:13:17.154Z,1.02
2023-10-20T14:15:44.986Z,0.75
2023-10-20T14:18:12.788Z,1.00
2023-10-20T14:20:40.389Z,0.77
2023-10-20T14:23:08.523Z,0.90
2023-10-20T14:25:35.308Z,0.65
2023-10-20T14:28:01.997Z,0.70
2023-10-20T14:30:28.713Z,0.80
2023-10-20T14:32:55.596Z,0.70
2023-10-20T14:35:23.422Z,0.60
2023-10-20T14:37:50.618Z,0.60
2023-10-20T14:40:17.353Z,0.50
2023-10-20T14:42:44.666Z,0.40
2023-10-20T14:45:11.387Z,0.40
2023-10-20T14:47:38.182Z,1.20
2023-10-20T14:50:05.388Z,1.52
2023-10-20T14:52:32.139Z,1.30
2023-10-20T14:54:59.151Z,2.65
2023-10-20T14:57:25.886Z,1.80
2023-10-20T14:59:52.641Z,1.25
2023-10-20T15:02:19.675Z,1.30
2023-10-20T15:04:46.988Z,1.10
2023-10-20T15:07:14.013Z,0.90
2023-10-20T15:09:40.684Z,0.70
2023-10-20T15:12:08.470Z,1.00
2023-10-20T15:14:35.693Z,1.10
2023-10-20T15:17:02.556Z,1.27
2023-10-20T15:19:30.405Z,0.90
2023-10-20T15:21:57.461Z,0.93
2023-10-20T15:24:24.183Z,1.00
2023-10-20T15:26:51.659Z,1.17
2023-10-20T15:29:18.911Z,1.20
2023-10-20T15:31:45.813Z,2.65
2023-10-20T15:34:12.687Z,2.30
2023-10-20T15:36:50.536Z,1.30
2023-10-20T15:39:26.480Z,1.20
2023-10-20T15:44:26.029Z,2.10
2023-10-20T15:46:52.796Z,2.33
2023-10-20T15:49:19.450Z,1.50
2023-10-20T15:51:46.433Z,1.90
2023-10-20T15:54:19.871Z,1.60
2023-10-20T15:56:46.677Z,1.60
2023-10-20T15:59:13.995Z,1.70
2023-10-20T16:01:40.736Z,1.55
2023-10-20T16:04:07.576Z,2.00
2023-10-20T16:06:34.309Z,2.30
2023-10-20T16:09:01.789Z,2.55
2023-10-20T16:11:29.074Z,2.40
2023-10-20T16:13:56.111Z,2.53
2023-10-20T16:16:24.590Z,2.28
2023-10-20T16:18:51.947Z,2.20
2023-10-20T16:21:19.856Z,3.00
2023-10-20T16:23:46.725Z,2.83
2023-10-20T16:26:13.838Z,3.10
2023-10-20T16:28:40.614Z,2.80
2023-10-20T16:31:07.394Z,3.80
2023-10-20T16:33:35.798Z,3.10
2023-10-20T16:36:03.194Z,2.90
2023-10-20T16:38:30.373Z,2.65
2023-10-20T16:40:58.636Z,2.97
2023-10-20T16:43:25.830Z,2.70
2023-10-20T16:45:53.433Z,2.75
2023-10-20T16:48:22.356Z,3.20
2023-10-20T16:51:01.397Z,2.78
2023-10-20T16:53:28.323Z,3.00
2023-10-20T16:55:59.564Z,2.92
2023-10-20T16:58:29.908Z,2.83
2023-10-20T17:01:04.199Z,3.70
2023-10-20T17:03:31.177Z,4.25
2023-10-20T17:05:58.324Z,3.80
2023-10-20T17:08:26.547Z,3.67
2023-10-20T17:10:55.117Z,3.85
2023-10-20T17:13:22.535Z,3.60
2023-10-20T17:15:49.369Z,4.60
2023-10-20T17:18:16.192Z,5.50
2023-10-20T17:20:43.442Z,5.30
2023-10-20T17:23:10.709Z,5.78
2023-10-20T17:25:42.519Z,6.60
2023-10-20T17:28:09.283Z,5.80
2023-10-20T17:30:38.968Z,7.10
2023-10-20T17:33:06.369Z,7.60
2023-10-20T17:35:34.170Z,8.45
2023-10-20T17:38:01.922Z,9.32
2023-10-20T17:40:29.031Z,9.95
2023-10-20T17:42:55.750Z,9.70
2023-10-20T17:45:27.424Z,9.93
2023-10-20T17:50:20.986Z,10.73
2023-10-20T17:52:47.714Z,11.77
2023-10-20T17:55:14.413Z,10.75
2023-10-20T17:57:41.108Z,11.75
2023-10-20T18:00:12.982Z,11.48
2023-10-20T18:02:39.914Z,11.82
2023-10-20T18:05:06.852Z,12.80
2023-10-20T18:07:33.526Z,13.68
2023-10-20T18:10:00.214Z,14.52
2023-10-20T18:12:26.909Z,14.07
2023-10-20T18:14:53.664Z,14.48
2023-10-20T18:17:20.526Z,15.20
2023-10-20T18:19:47.237Z,15.38
2023-10-20T18:22:13.922Z,13.50
2023-10-20T18:24:40.661Z,16.45
2023-10-20T18:27:07.361Z,13.90
2023-10-20T18:29:36.024Z,16.13
2023-10-20T18:32:03.915Z,15.13
2023-10-20T18:34:31.023Z,15.48
2023-10-20T18:36:58.128Z,15.02
2023-10-20T18:39:25.295Z,16.70
2023-10-20T18:41:53.678Z,15.85
2023-10-20T18:44:20.573Z,15.43
2023-10-20T18:46:47.340Z,15.57
2023-10-20T18:49:14.033Z,15.88
2023-10-20T18:51:42.104Z,15.52
2023-10-20T18:54:10.959Z,15.00
2023-10-20T18:56:38.273Z,16.02
2023-10-20T18:59:06.196Z,17.38
2023-10-20T19:01:33.158Z,15.35
2023-10-20T19:04:01.138Z,15.40
2023-10-20T19:06:28.141Z,14.52
2023-10-20T19:08:55.042Z,16.10
2023-10-20T19:11:22.042Z,14.82
2023-10-20T19:13:48.768Z,14.98
2023-10-20T19:16:15.552Z,14.38
2023-10-20T19:18:42.511Z,14.77
2023-10-20T19:21:11.944Z,15.95
2023-10-20T19:23:39.263Z,15.23
2023-10-20T19:26:09.016Z,13.73
2023-10-20T19:28:35.833Z,13.07
2023-10-20T19:31:04.274Z,12.65
2023-10-20T19:33:32.620Z,11.73
2023-10-20T19:36:00.346Z,11.98
2023-10-20T19:38:27.060Z,12.77
2023-10-20T19:40:54.194Z,10.93
2023-10-20T19:43:21.536Z,11.93
2023-10-20T19:45:48.279Z,10.85
2023-10-20T19:48:15.228Z,10.82
2023-10-20T19:50:42.280Z,12.02
2023-10-20T19:53:09.379Z,12.25
2023-10-20T19:55:36.110Z,11.02
2023-10-20T19:58:02.936Z,10.85
2023-10-20T20:00:31.231Z,10.35
2023-10-20T20:02:58.604Z,10.77
2023-10-20T20:05:28.730Z,10.35
2023-10-20T20:07:55.901Z,10.20
2023-10-20T20:10:23.060Z,10.48
2023-10-20T20:12:49.851Z,10.57
2023-10-20T20:15:16.672Z,10.63
2023-10-20T20:17:43.531Z,11.57
2023-10-20T20:20:10.803Z,10.73
2023-10-20T20:22:37.554Z,10.35
2023-10-20T20:25:04.597Z,10.15
2023-10-20T20:27:32.420Z,11.18
2023-10-20T20:29:59.203Z,10.55
2023-10-20T20:32:25.977Z,10.07
2023-10-20T20:34:52.662Z,10.75
2023-10-20T20:37:20.211Z,10.65
2023-10-20T20:39:47.030Z,9.73
2023-10-20T20:42:13.857Z,10.63
2023-10-20T20:44:40.738Z,10.43
2023-10-20T20:47:07.494Z,10.23
2023-10-20T20:49:35.615Z,10.20
2023-10-20T20:52:02.584Z,10.32
2023-10-20T20:54:29.491Z,9.77
2023-10-20T20:56:56.345Z,9.40
2023-10-20T20:59:23.155Z,10.55
2023-10-20T21:01:49.909Z,10.43
2023-10-20T21:04:16.824Z,9.82
2023-10-20T21:06:43.695Z,9.52
2023-10-20T21:09:11.464Z,10.07
2023-10-20T21:11:38.247Z,9.75
2023-10-20T21:14:05.080Z,11.40
2023-10-20T21:16:32.117Z,9.57
2023-10-20T21:19:01.733Z,10.10
2023-10-20T21:21:28.712Z,9.65
2023-10-20T21:23:55.512Z,10.02
2023-10-20T21:26:22.812Z,9.73
2023-10-20T21:28:49.924Z,10.45
2023-10-20T21:31:16.724Z,9.40
2023-10-20T21:33:43.676Z,10.05
2023-10-20T21:36:15.937Z,10.68
2023-10-20T21:38:42.841Z,10.32
2023-10-20T21:41:09.982Z,10.23
2023-10-20T21:43:36.693Z,10.60
2023-10-20T21:46:04.809Z,10.57
2023-10-20T21:48:31.774Z,12.73
2023-10-20T21:51:03.233Z,12.27
2023-10-20T21:53:32.409Z,11.40
2023-10-20T21:58:28.617Z,10.52
2023-10-20T22:00:55.698Z,10.85
2023-10-20T22:03:23.479Z,10.55
2023-10-20T22:05:53.727Z,10.10
2023-10-20T22:08:21.454Z,8.73
2023-10-20T22:10:48.442Z,10.95
2023-10-20T22:13:15.230Z,10.25
2023-10-20T22:15:41.939Z,10.45
2023-10-20T22:18:09.174Z,9.38
2023-10-20T22:20:36.164Z,9.07
2023-10-20T22:23:03.013Z,9.10
2023-10-20T22:25:29.647Z,7.82
2023-10-20T22:27:57.308Z,9.07
2023-10-20T22:30:24.307Z,7.97
2023-10-20T22:32:51.034Z,7.47
2023-10-20T22:35:18.048Z,7.85
2023-10-20T22:37:44.873Z,8.65
2023-10-20T22:40:11.782Z,8.70
2023-10-20T22:42:38.508Z,7.65
2023-10-20T22:45:06.075Z,8.48
2023-10-20T22:47:33.460Z,8.00
2023-10-20T22:50:00.384Z,7.90
2023-10-20T22:52:27.465Z,6.93
2023-10-20T22:54:54.628Z,7.65
2023-10-20T22:57:21.361Z,7.85
2023-10-20T22:59:48.073Z,7.55
2023-10-20T23:02:15.071Z,7.82
2023-10-20T23:04:41.836Z,8.27
2023-10-20T23:07:08.656Z,6.93
2023-10-20T23:09:35.953Z,7.43
2023-10-20T23:12:05.776Z,7.47
2023-10-20T23:14:32.609Z,7.70
2023-10-20T23:17:00.152Z,7.18
2023-10-20T23:19:26.912Z,6.85
2023-10-20T23:21:53.597Z,7.10
2023-10-20T23:24:20.375Z,7.22
2023-10-20T23:26:48.180Z,7.00
2023-10-20T23:29:14.886Z,6.65
2023-10-20T23:31:41.535Z,7.10
2023-10-20T23:34:08.282Z,6.47
2023-10-20T23:36:35.033Z,6.50
2023-10-20T23:39:01.835Z,6.90
2023-10-20T23:41:28.559Z,6.60
2023-10-20T23:43:55.314Z,7.22
2023-10-20T23:46:22.082Z,6.50
2023-10-20T23:48:48.842Z,6.28
2023-10-20T23:51:15.610Z,6.43
2023-10-20T23:53:42.511Z,6.13
2023-10-20T23:56:09.234Z,5.57
2023-10-20T23:58:35.876Z,5.75
